createdAt,value
2023-05-13T00:00:03.691Z,21.30
2023-05-13T00:02:51.801Z,22.25
2023-05-13T00:05:40.297Z,21.70
2023-05-13T00:08:28.345Z,19.90
2023-05-13T00:11:16.329Z,18.08
2023-05-13T00:14:04.488Z,17.90
2023-05-13T00:16:53.879Z,22.38
2023-05-13T00:19:41.931Z,18.40
2023-05-13T00:22:30.298Z,17.02
2023-05-13T00:25:18.407Z,18.90
2023-05-13T00:28:06.582Z,17.33
2023-05-13T00:30:54.688Z,18.23
2023-05-13T00:33:43.961Z,16.90
2023-05-13T00:36:31.961Z,17.10
2023-05-13T00:39:19.976Z,15.52
2023-05-13T00:42:10.919Z,16.37
2023-05-13T00:44:58.941Z,17.70
2023-05-13T00:47:47.116Z,17.63
2023-05-13T00:50:36.757Z,15.15
2023-05-13T00:53:24.789Z,15.27
2023-05-13T00:56:12.905Z,15.77
2023-05-13T00:59:00.898Z,17.20
2023-05-13T01:02:00.166Z,16.13
2023-05-13T01:04:56.622Z,14.80
2023-05-13T01:07:55.744Z,14.57
2023-05-13T01:10:49.711Z,15.43
2023-05-13T01:13:43.172Z,15.85
2023-05-13T01:16:36.811Z,14.38
2023-05-13T01:19:39.799Z,14.68
2023-05-13T01:22:29.173Z,14.35
2023-05-13T01:25:17.304Z,14.50
2023-05-13T01:28:06.078Z,15.00
2023-05-13T01:30:56.260Z,17.23
2023-05-13T01:33:44.884Z,17.13
2023-05-13T01:36:33.408Z,15.27
2023-05-13T01:39:24.887Z,15.17
2023-05-13T01:42:13.005Z,13.27
2023-05-13T01:45:01.016Z,13.82
2023-05-13T01:47:49.199Z,13.07
2023-05-13T01:50:37.311Z,11.63
2023-05-13T01:53:25.304Z,11.90
2023-05-13T01:56:14.629Z,12.95
2023-05-13T01:59:02.598Z,12.38
2023-05-13T02:01:50.743Z,15.45
2023-05-13T02:04:38.848Z,13.77
2023-05-13T02:07:26.952Z,12.73
2023-05-13T02:10:15.065Z,13.50
2023-05-13T02:13:04.480Z,12.25
2023-05-13T02:15:52.514Z,13.05
2023-05-13T02:18:40.990Z,12.10
2023-05-13T02:21:29.223Z,14.13
2023-05-13T02:24:17.759Z,13.68
2023-05-13T02:27:06.171Z,14.02
2023-05-13T02:29:55.634Z,14.73
2023-05-13T02:32:43.987Z,16.40
2023-05-13T02:35:32.038Z,15.07
2023-05-13T02:38:20.059Z,17.90
2023-05-13T02:41:08.070Z,15.98
2023-05-13T02:43:56.006Z,17.27
2023-05-13T02:46:45.372Z,19.48
2023-05-13T02:49:33.411Z,17.93
2023-05-13T02:52:21.463Z,18.80
2023-05-13T02:55:10.346Z,19.10
2023-05-13T02:57:58.389Z,19.58
2023-05-13T03:00:46.451Z,17.90
2023-05-13T03:03:35.881Z,19.47
2023-05-13T03:06:23.981Z,20.75
2023-05-13T03:09:12.005Z,21.98
2023-05-13T03:12:00.117Z,21.08
2023-05-13T03:14:48.376Z,25.23
2023-05-13T03:17:36.424Z,22.60
2023-05-13T03:20:25.831Z,23.77
2023-05-13T03:23:13.779Z,26.08
2023-05-13T03:26:02.200Z,29.10
2023-05-13T03:28:50.353Z,29.63
2023-05-13T03:31:38.749Z,27.90
2023-05-13T03:34:26.894Z,28.85
2023-05-13T03:37:16.303Z,35.15
2023-05-13T03:40:04.609Z,29.85
2023-05-13T03:42:52.664Z,30.85
2023-05-13T03:45:40.692Z,33.10
2023-05-13T03:48:28.689Z,33.20
2023-05-13T03:51:16.828Z,34.50
2023-05-13T03:54:06.392Z,34.50
2023-05-13T03:56:54.945Z,33.63
2023-05-13T03:59:43.016Z,33.73
2023-05-13T04:02:31.117Z,36.15
2023-05-13T04:05:19.414Z,39.72
2023-05-13T04:08:07.452Z,38.92
2023-05-13T04:10:57.453Z,38.70
2023-05-13T04:13:46.024Z,38.37
2023-05-13T04:16:34.081Z,39.90
2023-05-13T04:19:22.082Z,37.85
2023-05-13T04:22:10.063Z,38.00
2023-05-13T04:24:58.013Z,35.78
2023-05-13T04:27:47.784Z,46.73
2023-05-13T04:30:36.029Z,39.10
2023-05-13T04:33:24.031Z,36.17
2023-05-13T04:36:14.369Z,36.03
2023-05-13T04:39:03.198Z,36.67
2023-05-13T04:41:51.153Z,33.30
2023-05-13T04:44:40.535Z,37.25
2023-05-13T04:47:29.167Z,33.03
2023-05-13T04:50:17.613Z,37.00
2023-05-13T04:53:06.060Z,36.97
2023-05-13T04:56:00.451Z,34.80
2023-05-13T04:58:48.706Z,36.45
2023-05-13T05:01:38.143Z,31.92
2023-05-13T05:04:26.298Z,35.13
2023-05-13T05:07:14.356Z,32.25
2023-05-13T05:10:02.318Z,37.20
2023-05-13T05:12:50.849Z,32.30
2023-05-13T05:15:39.004Z,34.17
2023-05-13T05:18:28.484Z,33.95
2023-05-13T05:21:18.151Z,35.15
2023-05-13T05:24:06.858Z,31.03
2023-05-13T05:26:54.885Z,31.58
2023-05-13T05:29:43.121Z,35.88
2023-05-13T05:32:31.129Z,29.50
2023-05-13T05:35:20.696Z,33.00
2023-05-13T05:38:09.508Z,28.83
2023-05-13T05:40:57.545Z,29.15
2023-05-13T05:43:45.651Z,29.83
2023-05-13T05:46:34.042Z,26.33
2023-05-13T05:49:22.094Z,26.95
2023-05-13T05:52:12.885Z,31.43
2023-05-13T05:55:00.799Z,29.73
2023-05-13T05:57:48.907Z,25.05
2023-05-13T06:00:37.040Z,23.10
2023-05-13T06:03:25.328Z,24.33
2023-05-13T06:06:13.899Z,22.67
2023-05-13T06:09:03.456Z,29.60
2023-05-13T06:11:51.797Z,22.45
2023-05-13T06:14:39.726Z,20.83
2023-05-13T06:17:27.746Z,22.75
2023-05-13T06:20:15.775Z,23.43
2023-05-13T06:23:03.738Z,22.52
2023-05-13T06:25:53.114Z,22.30
2023-05-13T06:28:41.032Z,20.63
2023-05-13T06:31:29.070Z,23.45
2023-05-13T06:34:17.281Z,22.93
2023-05-13T06:37:05.602Z,22.35
2023-05-13T06:39:53.557Z,20.17
2023-05-13T06:42:42.932Z,21.00
2023-05-13T06:45:30.958Z,19.48
2023-05-13T06:48:18.904Z,18.80
2023-05-13T06:51:07.171Z,20.13
2023-05-13T06:53:55.352Z,23.42
2023-05-13T06:56:43.627Z,20.77
2023-05-13T06:59:32.968Z,20.15
2023-05-13T07:02:21.087Z,18.87
2023-05-13T07:05:11.486Z,18.40
2023-05-13T07:07:59.788Z,16.52
2023-05-13T07:10:47.782Z,20.30
2023-05-13T07:13:35.833Z,16.67
2023-05-13T07:16:25.138Z,15.77
2023-05-13T07:19:13.068Z,16.42
2023-05-13T07:22:00.965Z,15.50
2023-05-13T07:24:49.016Z,12.63
2023-05-13T07:27:37.735Z,14.35
2023-05-13T07:30:25.900Z,13.37
2023-05-13T07:33:15.339Z,13.73
2023-05-13T07:36:03.322Z,13.55
2023-05-13T07:38:51.325Z,14.30
2023-05-13T07:41:39.343Z,13.52
2023-05-13T07:44:27.514Z,11.83
2023-05-13T07:47:15.681Z,11.90
2023-05-13T07:50:05.651Z,12.60
2023-05-13T07:52:53.603Z,12.48
2023-05-13T07:55:41.581Z,10.98
2023-05-13T07:58:29.650Z,12.13
2023-05-13T08:01:17.679Z,12.55
2023-05-13T08:04:06.138Z,16.05
2023-05-13T08:06:56.013Z,13.80
2023-05-13T08:09:43.980Z,13.23
2023-05-13T08:12:31.954Z,16.63
2023-05-13T08:15:20.514Z,18.13
2023-05-13T08:18:08.822Z,17.35
2023-05-13T08:20:56.870Z,17.35
2023-05-13T08:23:46.326Z,13.07
2023-05-13T08:26:34.870Z,11.47
2023-05-13T08:29:22.849Z,11.95
2023-05-13T08:32:13.976Z,11.85
2023-05-13T08:35:02.239Z,10.45
2023-05-13T08:37:50.287Z,15.55
2023-05-13T08:40:39.635Z,16.80
2023-05-13T08:43:30.529Z,15.07
2023-05-13T08:46:19.908Z,13.85
2023-05-13T08:49:09.451Z,12.68
2023-05-13T08:51:57.564Z,12.88
2023-05-13T08:54:47.383Z,10.03
2023-05-13T08:57:36.721Z,13.88
2023-05-13T09:00:24.839Z,14.02
2023-05-13T09:03:14.125Z,15.40
2023-05-13T09:06:02.876Z,12.85
2023-05-13T09:08:50.998Z,13.70
2023-05-13T09:11:41.444Z,12.43
2023-05-13T09:14:32.607Z,12.43
2023-05-13T09:17:20.725Z,13.55
2023-05-13T09:20:11.105Z,13.13
2023-05-13T09:23:02.031Z,13.80
2023-05-13T09:25:50.310Z,12.90
2023-05-13T09:28:38.297Z,13.98
2023-05-13T09:31:35.271Z,11.82
2023-05-13T09:34:27.110Z,13.60
2023-05-13T09:37:19.185Z,11.27
2023-05-13T09:40:12.025Z,13.05
2023-05-13T09:43:00.146Z,14.32
2023-05-13T09:45:48.253Z,12.98
2023-05-13T09:48:43.503Z,13.45
2023-05-13T09:51:32.290Z,14.77
2023-05-13T09:54:20.244Z,17.63
2023-05-13T09:57:08.311Z,17.77
2023-05-13T10:00:00.273Z,19.50
2023-05-13T10:02:49.057Z,12.68
2023-05-13T10:05:40.292Z,14.57
2023-05-13T10:08:29.186Z,15.10
2023-05-13T10:11:18.261Z,15.40
2023-05-13T10:14:07.301Z,16.75
2023-05-13T10:16:55.797Z,15.50
2023-05-13T10:19:44.119Z,15.03
2023-05-13T10:22:34.800Z,15.43
2023-05-13T10:25:23.634Z,12.80
2023-05-13T10:28:12.322Z,14.68
2023-05-13T10:31:00.354Z,14.55
2023-05-13T10:33:48.588Z,16.63
2023-05-13T10:36:51.995Z,16.92
2023-05-13T10:40:03.985Z,12.02
2023-05-13T10:42:57.504Z,13.85
2023-05-13T10:45:46.885Z,14.07
2023-05-13T10:48:40.543Z,12.23
2023-05-13T10:51:28.863Z,15.23
2023-05-13T10:54:20.918Z,14.55
2023-05-13T10:57:10.682Z,15.18
2023-05-13T11:00:15.488Z,14.05
2023-05-13T11:03:29.060Z,15.93
2023-05-13T11:06:19.421Z,14.25
2023-05-13T11:09:09.043Z,15.27
2023-05-13T11:11:59.018Z,15.38
2023-05-13T11:14:49.703Z,16.50
2023-05-13T11:17:38.063Z,17.17
2023-05-13T11:20:26.163Z,16.60
2023-05-13T11:23:18.951Z,17.38
2023-05-13T11:26:16.996Z,16.17
2023-05-13T11:29:06.446Z,14.60
2023-05-13T11:32:00.079Z,15.83
2023-05-13T11:34:52.376Z,13.75
2023-05-13T11:37:43.912Z,15.73
2023-05-13T11:40:33.388Z,13.23
2023-05-13T11:43:22.594Z,15.10
2023-05-13T11:46:20.249Z,15.27
2023-05-13T11:49:09.539Z,14.43
2023-05-13T11:51:58.342Z,15.98
2023-05-13T11:54:48.962Z,12.68
2023-05-13T11:57:37.115Z,14.68
2023-05-13T12:00:27.196Z,15.07
2023-05-13T12:03:16.259Z,14.40
2023-05-13T12:06:06.505Z,13.68
2023-05-13T12:08:54.571Z,17.35
2023-05-13T12:11:43.347Z,16.50
2023-05-13T12:14:33.196Z,14.60
2023-05-13T12:17:22.452Z,12.88
2023-05-13T12:20:13.183Z,16.80
2023-05-13T12:23:04.174Z,18.60
2023-05-13T12:25:52.388Z,18.02
2023-05-13T12:28:40.410Z,16.57
2023-05-13T12:31:28.650Z,14.57
2023-05-13T12:34:31.921Z,17.85
2023-05-13T12:37:19.894Z,15.32
2023-05-13T12:40:13.639Z,16.42
2023-05-13T12:43:03.056Z,14.57
2023-05-13T12:45:54.880Z,13.80
2023-05-13T12:48:44.623Z,14.90
2023-05-13T12:51:33.771Z,15.65
2023-05-13T12:54:22.181Z,12.73
2023-05-13T12:57:11.887Z,15.73
2023-05-13T12:59:59.953Z,14.35
2023-05-13T13:02:47.948Z,14.80
2023-05-13T13:05:36.251Z,14.70
2023-05-13T13:08:24.349Z,15.75
2023-05-13T13:11:14.963Z,14.07
2023-05-13T13:14:04.405Z,14.88
2023-05-13T13:16:52.752Z,14.20
2023-05-13T13:19:40.878Z,16.08
2023-05-13T13:22:28.943Z,15.13
2023-05-13T13:25:17.182Z,13.53
2023-05-13T13:28:05.709Z,14.68
2023-05-13T13:30:55.495Z,12.85
2023-05-13T13:33:43.423Z,12.88
2023-05-13T13:36:32.744Z,15.75
2023-05-13T13:39:20.681Z,17.30
2023-05-13T13:42:08.828Z,19.15
2023-05-13T13:44:56.766Z,15.60
2023-05-13T13:47:46.160Z,15.68
2023-05-13T13:50:34.228Z,18.30
2023-05-13T13:53:22.807Z,18.30
2023-05-13T13:56:10.795Z,17.30
2023-05-13T13:58:58.989Z,14.90
2023-05-13T14:01:47.093Z,16.15
2023-05-13T14:04:37.269Z,17.33
2023-05-13T14:07:25.377Z,17.17
2023-05-13T14:10:13.379Z,13.93
2023-05-13T14:13:01.676Z,14.93
2023-05-13T14:15:49.636Z,15.13
2023-05-13T14:18:37.642Z,13.95
2023-05-13T14:21:27.121Z,16.13
2023-05-13T14:24:15.271Z,15.70
2023-05-13T14:27:03.341Z,16.20
2023-05-13T14:29:51.640Z,12.85
2023-05-13T14:32:42.377Z,16.45
2023-05-13T14:35:30.422Z,13.60
2023-05-13T14:38:20.122Z,16.37
2023-05-13T14:41:08.070Z,16.30
2023-05-13T14:43:56.092Z,17.90
2023-05-13T14:46:44.086Z,16.13
2023-05-13T14:49:32.075Z,15.00
2023-05-13T14:52:20.149Z,15.33
2023-05-13T14:55:10.838Z,14.57
2023-05-13T14:57:59.223Z,14.55
2023-05-13T15:00:47.300Z,20.17
2023-05-13T15:03:35.390Z,15.40
2023-05-13T15:06:23.631Z,16.33
2023-05-13T15:09:12.233Z,20.80
2023-05-13T15:12:01.658Z,17.40
2023-05-13T15:14:53.132Z,14.57
2023-05-13T15:17:41.214Z,15.38
2023-05-13T15:20:29.588Z,16.33
2023-05-13T15:23:17.561Z,15.18
2023-05-13T15:26:05.736Z,16.90
2023-05-13T15:28:55.086Z,16.10
2023-05-13T15:31:43.130Z,17.05
2023-05-13T15:34:31.109Z,16.40
2023-05-13T15:37:19.139Z,19.20
2023-05-13T15:40:08.257Z,13.88
2023-05-13T15:42:56.334Z,17.45
2023-05-13T15:45:45.710Z,14.88
2023-05-13T15:48:33.780Z,16.23
2023-05-13T15:51:21.872Z,17.65
2023-05-13T15:54:10.030Z,17.13
2023-05-13T15:56:59.089Z,15.45
2023-05-13T15:59:47.094Z,17.30
2023-05-13T16:02:39.283Z,17.93
2023-05-13T16:05:27.313Z,17.90
2023-05-13T16:08:15.360Z,17.13
2023-05-13T16:11:03.678Z,17.98
2023-05-13T16:13:52.343Z,14.85
2023-05-13T16:16:40.432Z,18.13
2023-05-13T16:19:29.869Z,19.33
2023-05-13T16:22:32.564Z,19.15
2023-05-13T16:25:21.364Z,17.10
2023-05-13T16:28:11.546Z,17.52
2023-05-13T16:30:59.625Z,18.60
2023-05-13T16:33:47.607Z,15.30
2023-05-13T16:36:36.928Z,17.27
2023-05-13T16:39:24.905Z,19.17
2023-05-13T16:42:13.103Z,19.92
2023-05-13T16:45:01.078Z,17.90
2023-05-13T16:47:49.102Z,21.00
2023-05-13T16:50:37.437Z,16.33
2023-05-13T16:53:27.088Z,18.00
2023-05-13T16:56:15.102Z,19.70
2023-05-13T16:59:03.171Z,20.87
2023-05-13T17:01:52.329Z,18.60
2023-05-13T17:04:40.274Z,17.92
2023-05-13T17:07:28.291Z,21.20
2023-05-13T17:10:17.975Z,17.35
2023-05-13T17:13:06.017Z,19.73
2023-05-13T17:15:54.027Z,21.48
2023-05-13T17:18:42.115Z,16.67
2023-05-13T17:21:30.169Z,21.00
2023-05-13T17:24:18.151Z,18.23
2023-05-13T17:27:07.476Z,19.07
2023-05-13T17:29:55.440Z,21.42
2023-05-13T17:32:43.411Z,21.00
2023-05-13T17:35:31.471Z,20.92
2023-05-13T17:38:19.463Z,18.95
2023-05-13T17:41:07.534Z,21.90
2023-05-13T17:43:56.919Z,21.33
2023-05-13T17:46:44.939Z,19.25
2023-05-13T17:49:32.959Z,23.75
2023-05-13T17:52:21.406Z,24.98
2023-05-13T17:55:10.105Z,20.50
2023-05-13T17:57:59.023Z,22.58
2023-05-13T18:00:49.153Z,24.60
2023-05-13T18:03:37.111Z,19.10
2023-05-13T18:06:25.195Z,20.98
2023-05-13T18:09:13.093Z,25.63
2023-05-13T18:12:01.125Z,21.30
2023-05-13T18:14:49.122Z,25.75
2023-05-13T18:17:38.866Z,18.10
2023-05-13T18:20:26.839Z,24.73
2023-05-13T18:23:14.884Z,22.97
2023-05-13T18:26:02.922Z,20.02
2023-05-13T18:28:51.032Z,23.17
2023-05-13T18:31:39.202Z,23.20
2023-05-13T18:34:28.764Z,21.17
2023-05-13T18:37:16.763Z,24.57
2023-05-13T18:40:05.324Z,23.90
2023-05-13T18:42:53.337Z,21.75
2023-05-13T18:45:41.378Z,21.23
2023-05-13T18:48:29.359Z,22.77
2023-05-13T18:51:18.770Z,24.80
2023-05-13T18:54:06.861Z,24.27
2023-05-13T18:56:54.984Z,24.83
2023-05-13T18:59:42.962Z,24.70
2023-05-13T19:02:31.424Z,23.85
2023-05-13T19:05:21.273Z,22.80
2023-05-13T19:08:10.584Z,22.20
2023-05-13T19:10:58.626Z,26.00
2023-05-13T19:13:47.818Z,23.75
2023-05-13T19:16:36.309Z,23.30
2023-05-13T19:19:24.509Z,25.90
2023-05-13T19:22:12.511Z,28.45
2023-05-13T19:25:01.798Z,25.15
2023-05-13T19:27:50.425Z,26.67
2023-05-13T19:30:38.988Z,25.70
2023-05-13T19:33:27.049Z,26.67
2023-05-13T19:36:15.031Z,28.08
2023-05-13T19:39:03.094Z,26.20
2023-05-13T19:41:52.804Z,22.92
2023-05-13T19:44:40.939Z,27.23
2023-05-13T19:47:30.504Z,23.67
2023-05-13T19:50:18.862Z,26.40
2023-05-13T19:53:06.857Z,27.67
2023-05-13T19:55:56.678Z,26.95
2023-05-13T19:58:46.084Z,24.48
2023-05-13T20:01:34.130Z,26.30
2023-05-13T20:04:22.573Z,29.73
2023-05-13T20:07:10.569Z,28.02
2023-05-13T20:09:58.540Z,31.45
2023-05-13T20:12:47.155Z,26.02
2023-05-13T20:15:36.501Z,33.27
2023-05-13T20:18:24.562Z,30.75
2023-05-13T20:21:12.779Z,28.55
2023-05-13T20:24:00.852Z,31.35
2023-05-13T20:26:48.783Z,33.92
2023-05-13T20:29:37.823Z,28.53
2023-05-13T20:32:27.375Z,27.58
2023-05-13T20:35:15.389Z,31.80
2023-05-13T20:38:03.790Z,28.40
2023-05-13T20:40:51.788Z,32.50
2023-05-13T20:43:39.822Z,31.80
2023-05-13T20:46:27.962Z,32.90
2023-05-13T20:49:17.907Z,34.15
2023-05-13T20:52:09.148Z,33.80
2023-05-13T20:54:57.411Z,32.92
2023-05-13T20:57:45.418Z,35.93
2023-05-13T21:00:33.424Z,33.97
2023-05-13T21:03:21.707Z,32.55
2023-05-13T21:06:12.088Z,32.20
2023-05-13T21:09:00.110Z,35.47
2023-05-13T21:11:48.119Z,36.40
2023-05-13T21:14:36.261Z,36.33
2023-05-13T21:17:24.672Z,33.42
2023-05-13T21:20:13.735Z,41.45
2023-05-13T21:23:03.343Z,34.60
2023-05-13T21:25:51.649Z,35.17
2023-05-13T21:28:40.145Z,34.30
2023-05-13T21:31:28.286Z,35.28
2023-05-13T21:34:16.304Z,36.05
2023-05-13T21:37:04.305Z,37.15
2023-05-13T21:39:53.853Z,35.83
2023-05-13T21:42:41.837Z,39.20
2023-05-13T21:45:29.762Z,37.63
2023-05-13T21:48:17.832Z,36.40
2023-05-13T21:51:06.069Z,36.20
2023-05-13T21:53:54.322Z,34.67
2023-05-13T21:56:43.733Z,35.13
2023-05-13T21:59:31.746Z,36.70
2023-05-13T22:02:19.787Z,33.97
2023-05-13T22:05:08.522Z,37.33
2023-05-13T22:07:56.504Z,36.80
2023-05-13T22:10:44.445Z,37.95
2023-05-13T22:13:33.812Z,39.08
2023-05-13T22:16:22.021Z,35.08
2023-05-13T22:19:10.287Z,38.97
2023-05-13T22:21:58.470Z,37.87
2023-05-13T22:24:46.857Z,36.50
2023-05-13T22:27:34.842Z,35.03
2023-05-13T22:30:24.641Z,36.03
2023-05-13T22:33:12.961Z,39.03
2023-05-13T22:36:00.938Z,38.90
2023-05-13T22:38:49.001Z,42.47
2023-05-13T22:41:37.026Z,36.80
2023-05-13T22:44:24.960Z,37.53
2023-05-13T22:47:14.301Z,34.75
2023-05-13T22:50:02.357Z,36.83
2023-05-13T22:52:50.384Z,35.75
2023-05-13T22:55:38.549Z,38.05
2023-05-13T22:58:26.522Z,40.33
2023-05-13T23:01:15.220Z,35.30
2023-05-13T23:04:05.671Z,43.43
2023-05-13T23:06:53.716Z,36.92
2023-05-13T23:09:41.817Z,37.90
2023-05-13T23:12:29.887Z,36.72
2023-05-13T23:15:18.260Z,41.63
2023-05-13T23:18:06.513Z,37.83
2023-05-13T23:20:56.962Z,35.80
2023-05-13T23:23:45.331Z,37.42
2023-05-13T23:26:33.447Z,37.35
2023-05-13T23:29:21.857Z,38.83
2023-05-13T23:32:09.851Z,36.90
2023-05-13T23:34:57.912Z,36.40
2023-05-13T23:37:47.318Z,36.15
2023-05-13T23:40:35.393Z,34.17
2023-05-13T23:43:23.429Z,36.53
2023-05-13T23:46:11.547Z,33.43
2023-05-13T23:48:59.734Z,34.67
2023-05-13T23:51:47.844Z,33.25
2023-05-13T23:54:37.210Z,32.50
2023-05-13T23:57:25.329Z,33.65
